Time;durP1;ratioP1;P1;durP2;ratioP2;P2;SDS_P1;SDS_P2;PMS_P1;PMS_P2;Temp;Humidity;BMP_temperature;BMP_pressure;BME280_temperature;BME280_humidity;BME280_pressure;Samples;Min_cycle;Max_cycle;Signal;HPM_P1;HPM_P2
2023/08/11 00:02:01;;;;;;;4.50;2.15;;;;;;;18.47;56.89;100408.81;4478072;32;33876;-78
2023/08/11 00:04:29;;;;;;;5.07;2.00;;;;;;;18.83;55.37;100413.09;4473116;32;33200;-77
2023/08/11 00:06:57;;;;;;;5.00;2.30;;;;;;;18.66;56.69;100407.50;4478302;32;33850;-77
2023/08/11 00:09:26;;;;;;;5.10;2.40;;;;;;;18.59;56.87;100409.06;4478009;32;33695;-78
2023/08/11 00:11:55;;;;;;;3.97;2.10;;;;;;;18.69;56.26;100406.66;4477675;32;33207;-77
2023/08/11 00:14:22;;;;;;;4.90;2.50;;;;;;;18.58;56.76;100402.06;4475051;32;33901;-77
2023/08/11 00:16:49;;;;;;;5.28;2.28;;;;;;;18.83;54.52;100407.84;4483150;32;34413;-77
2023/08/11 00:19:17;;;;;;;4.35;2.30;;;;;;;18.47;57.10;100406.19;4480592;32;32540;-77
2023/08/11 00:21:45;;;;;;;4.25;2.10;;;;;;;18.37;57.06;100401.56;4479062;32;33500;-78
2023/08/11 00:24:12;;;;;;;3.95;2.35;;;;;;;18.59;55.98;100398.59;4477951;32;34079;-78
2023/08/11 00:26:40;;;;;;;3.83;2.10;;;;;;;18.40;56.88;100401.66;4474651;32;33807;-78
2023/08/11 00:29:08;;;;;;;5.30;2.33;;;;;;;18.54;56.61;100404.56;4472651;32;33437;-77
2023/08/11 00:31:35;;;;;;;4.18;2.37;;;;;;;18.51;56.38;100405.41;4472044;32;33835;-77
2023/08/11 00:34:03;;;;;;;4.75;2.17;;;;;;;18.41;56.71;100403.44;4474893;32;32941;-78
2023/08/11 00:36:31;;;;;;;5.17;2.30;;;;;;;18.37;57.84;100398.94;4476333;32;33973;-77
2023/08/11 00:39:00;;;;;;;4.53;2.20;;;;;;;18.24;58.60;100400.44;4482639;32;33668;-77
2023/08/11 00:41:28;;;;;;;4.32;2.12;;;;;;;18.02;59.44;100404.25;4480472;32;33496;-77
2023/08/11 00:43:55;;;;;;;5.05;2.47;;;;;;;18.01;59.81;100392.00;4474426;32;33618;-77
2023/08/11 00:46:24;;;;;;;4.30;2.30;;;;;;;18.33;58.28;100399.72;4477670;32;34384;-78
2023/08/11 00:48:53;;;;;;;5.80;2.30;;;;;;;18.26;58.61;100394.34;4476941;32;33460;-79
2023/08/11 00:51:22;;;;;;;4.45;2.10;;;;;;;18.17;59.13;100399.37;4457132;32;34455;-78
2023/08/11 00:53:51;;;;;;;4.75;2.20;;;;;;;18.26;59.18;100393.47;4468364;32;33590;-78
2023/08/11 00:56:22;;;;;;;5.03;2.42;;;;;;;18.43;58.70;100389.50;4459994;32;33132;-78
2023/08/11 00:58:50;;;;;;;6.10;2.27;;;;;;;18.40;58.88;100396.41;4473448;32;32015;-78
2023/08/11 01:01:18;;;;;;;3.78;2.30;;;;;;;18.40;58.56;100396.41;4462568;32;33865;-78
2023/08/11 01:03:47;;;;;;;4.70;2.60;;;;;;;18.31;59.08;100389.22;4477791;32;33270;-78
2023/08/11 01:06:40;;;;;;;4.62;2.35;;;;;;;18.17;59.78;100388.00;4473623;32;33578;-79
2023/08/11 01:09:28;;;;;;;5.37;2.55;;;;;;;18.24;59.82;100395.19;4478674;32;33838;-77
2023/08/11 01:12:07;;;;;;;4.60;2.30;;;;;;;18.22;59.94;100392.50;4474677;32;33731;-78
2023/08/11 01:15:00;;;;;;;4.78;2.40;;;;;;;18.13;60.09;100392.28;4471313;32;31369;-78
2023/08/11 01:17:29;;;;;;;4.95;2.60;;;;;;;18.69;57.80;100383.91;4460261;32;33625;-78
2023/08/11 01:19:57;;;;;;;4.80;2.28;;;;;;;18.22;59.58;100381.16;4456653;32;34461;-79
2023/08/11 01:22:28;;;;;;;4.85;2.40;;;;;;;18.15;59.45;100379.22;4460043;32;33526;-79
2023/08/11 01:24:55;;;;;;;4.67;2.40;;;;;;;18.25;59.53;100376.88;4470687;32;33987;-78
2023/08/11 01:27:24;;;;;;;5.35;2.65;;;;;;;18.24;59.61;100375.06;4477918;32;33735;-78
2023/08/11 01:29:52;;;;;;;5.68;2.58;;;;;;;17.91;60.23;100379.53;4457955;32;32408;-78
2023/08/11 01:32:19;;;;;;;3.93;2.30;;;;;;;17.96;60.17;100370.03;4476496;32;33809;-78
2023/08/11 01:34:47;;;;;;;4.12;2.53;;;;;;;18.19;59.59;100375.81;4471159;32;33111;-79
2023/08/11 01:37:14;;;;;;;4.45;2.50;;;;;;;18.10;59.94;100375.59;4473647;32;33716;-78
2023/08/11 01:39:43;;;;;;;4.65;2.35;;;;;;;18.01;60.10;100373.66;4479033;32;33722;-78
2023/08/11 01:42:11;;;;;;;4.97;2.47;;;;;;;18.08;59.80;100380.84;4471156;32;33784;-78
2023/08/11 01:44:39;;;;;;;4.20;2.35;;;;;;;18.13;59.62;100384.44;4474372;32;33452;-79
2023/08/11 01:47:06;;;;;;;4.60;2.50;;;;;;;18.20;59.56;100388.97;4464776;32;33805;-78
2023/08/11 01:49:34;;;;;;;5.28;2.20;;;;;;;18.00;60.31;100383.28;4475118;32;34052;-78
2023/08/11 01:52:03;;;;;;;4.40;2.40;;;;;;;18.26;59.30;100386.47;4459037;32;33509;-78
2023/08/11 01:54:30;;;;;;;4.57;2.50;;;;;;;18.60;58.23;100383.72;4474467;32;33134;-78
2023/08/11 01:56:59;;;;;;;4.00;2.40;;;;;;;18.41;58.45;100387.69;4471758;32;33711;-78
2023/08/11 01:59:26;;;;;;;4.33;2.23;;;;;;;18.52;58.17;100385.28;4453078;32;33634;-79
2023/08/11 02:01:54;;;;;;;5.32;2.60;;;;;;;18.02;60.28;100384.19;4478568;32;33292;-78
2023/08/11 02:04:22;;;;;;;4.57;2.50;;;;;;;18.74;57.25;100386.66;4482650;32;33198;-78
2023/08/11 02:06:50;;;;;;;4.32;2.33;;;;;;;18.77;57.46;100387.59;4481347;32;34338;-78
2023/08/11 02:09:17;;;;;;;4.90;2.50;;;;;;;18.91;57.19;100394.88;4474764;32;33860;-78
2023/08/11 02:11:45;;;;;;;4.12;2.22;;;;;;;18.81;57.38;100399.06;4482707;32;33564;-78
2023/08/11 02:14:12;;;;;;;5.53;2.80;;;;;;;18.64;58.36;100401.31;4460111;32;32631;-78
2023/08/11 02:16:41;;;;;;;5.10;2.40;;;;;;;18.54;58.64;100401.94;4480610;32;33718;-79
2023/08/11 02:19:09;;;;;;;5.37;2.70;;;;;;;18.27;58.77;100397.84;4483040;32;33740;-78
2023/08/11 02:21:39;;;;;;;5.72;2.58;;;;;;;18.25;59.39;100397.84;4454998;32;33309;-78
2023/08/11 02:24:07;;;;;;;4.60;2.62;;;;;;;17.90;60.88;100396.97;4481914;32;35074;-78
2023/08/11 02:26:34;;;;;;;5.62;2.70;;;;;;;17.95;60.36;100391.88;4482780;32;34025;-78
2023/08/11 02:29:03;;;;;;;4.85;2.72;;;;;;;18.02;60.20;100386.81;4482343;32;33567;-78
2023/08/11 02:31:32;;;;;;;4.75;2.67;;;;;;;17.98;60.19;100392.84;4476865;32;33716;-78
2023/08/11 02:34:00;;;;;;;4.32;2.55;;;;;;;17.84;60.89;100394.22;4467909;32;32623;-78
2023/08/11 02:36:28;;;;;;;5.37;2.55;;;;;;;17.66;61.61;100399.84;4476891;32;33534;-78
2023/08/11 02:38:55;;;;;;;5.47;2.60;;;;;;;17.73;61.29;100395.66;4482702;32;33941;-78
2023/08/11 02:41:23;;;;;;;4.50;2.85;;;;;;;17.98;60.44;100397.16;4479153;32;34073;-78
2023/08/11 02:43:51;;;;;;;5.25;2.62;;;;;;;18.33;59.25;100395.41;4480118;32;33980;-78
2023/08/11 02:46:20;;;;;;;4.43;2.58;;;;;;;18.80;57.10;100402.56;4478985;32;33737;-78
2023/08/11 02:48:47;;;;;;;6.27;2.57;;;;;;;18.66;57.27;100400.50;4477959;32;33899;-78
2023/08/11 02:51:16;;;;;;;4.50;2.35;;;;;;;18.59;57.58;100398.59;4478646;32;33654;-78
2023/08/11 02:53:44;;;;;;;5.05;2.40;;;;;;;18.53;57.23;100408.06;4471653;32;33300;-78
2023/08/11 02:56:15;;;;;;;5.47;2.50;;;;;;;18.16;59.16;100400.25;4472856;32;34577;-77
2023/08/11 02:58:42;;;;;;;4.97;2.50;;;;;;;17.23;62.05;100403.94;4482247;32;33567;-79
2023/08/11 03:01:10;;;;;;;5.10;2.37;;;;;;;17.75;60.76;100400.09;4480785;32;33831;-78
2023/08/11 03:03:38;;;;;;;6.90;2.60;;;;;;;17.29;61.71;100404.13;4460440;32;34149;-78
2023/08/11 03:06:05;;;;;;;5.30;2.65;;;;;;;17.41;61.37;100409.69;4471133;32;33391;-78
2023/08/11 03:08:33;;;;;;;5.18;2.60;;;;;;;17.13;62.69;100415.00;4482382;32;33348;-78
2023/08/11 03:11:01;;;;;;;5.28;2.60;;;;;;;17.27;62.34;100408.44;4481680;32;34420;-78
2023/08/11 03:13:30;;;;;;;4.27;2.30;;;;;;;17.18;62.83;100416.03;4477557;32;34080;-78
2023/08/11 03:15:58;;;;;;;4.57;2.60;;;;;;;17.54;61.24;100410.00;4482190;32;33802;-78
2023/08/11 03:18:26;;;;;;;4.50;2.40;;;;;;;17.44;61.08;100417.63;4475024;32;33733;-78
2023/08/11 03:20:54;;;;;;;5.53;2.58;;;;;;;16.85;63.48;100417.72;4479980;32;33914;-78
2023/08/11 03:23:40;;;;;;;4.90;2.50;;;;;;;17.16;62.53;100415.09;4477132;32;32737;-78
2023/08/11 03:26:09;;;;;;;4.37;2.40;;;;;;;17.24;62.50;100422.31;4481686;32;33328;-78
2023/08/11 03:28:37;;;;;;;5.15;2.53;;;;;;;17.37;62.38;100418.31;4482206;32;33688;-78
2023/08/11 03:31:05;;;;;;;5.15;2.50;;;;;;;17.53;61.76;100410.84;4480950;32;33543;-78
2023/08/11 03:33:33;;;;;;;4.97;2.70;;;;;;;17.42;62.19;100414.09;4479401;32;32796;-78
2023/08/11 03:36:02;;;;;;;5.00;2.90;;;;;;;17.09;62.83;100424.50;4459394;32;32097;-78
2023/08/11 03:38:30;;;;;;;4.97;2.60;;;;;;;17.03;62.86;100426.94;4481814;32;33783;-78
2023/08/11 03:40:58;;;;;;;5.30;2.65;;;;;;;16.88;63.66;100422.16;4480622;32;34060;-78
2023/08/11 03:43:25;;;;;;;6.45;2.65;;;;;;;17.02;63.09;100420.84;4472879;32;33387;-77
2023/08/11 03:45:53;;;;;;;5.10;3.00;;;;;;;17.25;62.32;100421.47;4472583;32;33871;-78
2023/08/11 03:48:20;;;;;;;6.37;2.70;;;;;;;16.81;64.07;100426.28;4481149;32;34544;-78
2023/08/11 03:50:48;;;;;;;4.50;2.53;;;;;;;16.82;64.29;100421.97;4481254;32;33530;-78
2023/08/11 03:53:16;;;;;;;5.15;2.80;;;;;;;17.16;62.78;100425.56;4479568;32;33585;-78
2023/08/11 03:55:45;;;;;;;5.97;2.60;;;;;;;16.73;64.57;100421.66;4482088;32;34643;-78
2023/08/11 03:58:14;;;;;;;4.90;2.87;;;;;;;16.79;64.41;100434.94;4481536;32;33550;-78
2023/08/11 04:00:42;;;;;;;4.68;2.70;;;;;;;17.11;62.63;100430.66;4483221;32;34591;-78
2023/08/11 04:03:10;;;;;;;5.85;2.72;;;;;;;17.24;62.66;100427.53;4484126;32;32976;-78
2023/08/11 04:05:39;;;;;;;4.82;2.53;;;;;;;16.83;64.04;100434.22;4483853;32;34548;-78
2023/08/11 04:08:07;;;;;;;5.22;2.80;;;;;;;17.16;62.56;100436.03;4481368;32;33680;-78
2023/08/11 04:10:35;;;;;;;5.03;2.53;;;;;;;17.12;61.82;100436.81;4482220;32;34413;-78
2023/08/11 04:13:03;;;;;;;4.65;2.90;;;;;;;17.33;61.64;100442.62;4472323;32;33621;-78
2023/08/11 04:15:33;;;;;;;4.65;2.60;;;;;;;17.22;62.13;100447.56;4483691;32;34814;-78
2023/08/11 04:18:01;;;;;;;4.55;2.85;;;;;;;17.45;61.60;100442.97;4481418;32;34204;-78
2023/08/11 04:20:29;;;;;;;5.47;2.78;;;;;;;17.36;61.27;100450.56;4477548;32;33853;-78
2023/08/11 04:22:56;;;;;;;5.32;2.85;;;;;;;17.22;62.23;100449.31;4482294;32;33189;-78
2023/08/11 04:25:24;;;;;;;6.25;2.90;;;;;;;17.28;61.45;100454.72;4478858;32;33929;-78
2023/08/11 04:27:52;;;;;;;5.57;3.00;;;;;;;17.09;61.90;100459.44;4472585;32;33683;-78
2023/08/11 04:30:19;;;;;;;5.03;3.00;;;;;;;17.41;61.32;100454.19;4474746;32;33697;-77
2023/08/11 04:32:47;;;;;;;6.05;3.10;;;;;;;17.15;62.58;100458.69;4477056;32;32145;-78
2023/08/11 04:35:15;;;;;;;5.50;3.00;;;;;;;17.36;62.13;100458.41;4476770;32;33713;-78
2023/08/11 04:37:43;;;;;;;5.18;3.05;;;;;;;17.30;62.45;100456.50;4472065;32;33457;-78
2023/08/11 04:40:13;;;;;;;6.03;2.90;;;;;;;17.54;61.37;100447.56;4473946;32;34219;-78
2023/08/11 04:42:42;;;;;;;5.72;3.42;;;;;;;17.47;61.56;100456.97;4482568;32;33174;-78
2023/08/11 04:45:10;;;;;;;5.97;2.75;;;;;;;17.56;61.59;100458.06;4481942;32;33548;-78
2023/08/11 04:47:39;;;;;;;5.53;2.92;;;;;;;17.84;60.51;100462.34;4469401;32;32056;-78
2023/08/11 04:50:08;;;;;;;5.53;3.03;;;;;;;18.00;60.43;100463.63;4481574;32;34083;-78
2023/08/11 04:52:35;;;;;;;6.20;3.05;;;;;;;17.95;60.71;100470.50;4482555;32;33603;-78
2023/08/11 04:55:04;;;;;;;6.28;2.85;;;;;;;17.95;60.95;100473.12;4476860;32;33483;-78
2023/08/11 04:57:33;;;;;;;5.62;3.30;;;;;;;18.00;60.56;100474.09;4479415;32;35050;-78
2023/08/11 05:00:02;;;;;;;6.28;3.12;;;;;;;17.83;60.78;100482.41;4483624;32;33657;-78
2023/08/11 05:02:33;;;;;;;6.83;3.27;;;;;;;17.94;60.46;100473.97;4483401;32;32384;-78
2023/08/11 05:05:00;;;;;;;6.47;3.20;;;;;;;17.94;60.71;100479.19;4482547;32;33817;-78
2023/08/11 05:07:28;;;;;;;8.88;3.60;;;;;;;17.47;62.17;100485.78;4483828;32;33541;-78
2023/08/11 05:09:56;;;;;;;8.80;3.50;;;;;;;17.90;60.92;100483.47;4483120;32;33551;-78
2023/08/11 05:12:23;;;;;;;5.35;3.50;;;;;;;17.97;60.85;100492.41;4482527;32;33714;-78
2023/08/11 05:14:51;;;;;;;6.68;3.12;;;;;;;17.86;61.77;100487.75;4483009;32;33768;-78
2023/08/11 05:17:18;;;;;;;7.40;3.40;;;;;;;18.32;60.21;100487.16;4469731;32;33267;-78
2023/08/11 05:19:46;;;;;;;6.35;3.65;;;;;;;17.69;62.30;100495.16;4483639;32;33709;-78
2023/08/11 05:22:14;;;;;;;5.75;3.20;;;;;;;17.97;61.61;100490.66;4483247;32;33851;-78
2023/08/11 05:24:42;;;;;;;5.57;3.15;;;;;;;18.31;60.35;100498.47;4482574;32;34237;-78
2023/08/11 05:27:10;;;;;;;6.20;3.30;;;;;;;18.63;59.36;100502.75;4476819;32;33556;-78
2023/08/11 05:29:37;;;;;;;6.62;3.20;;;;;;;18.43;60.13;100496.16;4481618;31;33728;-78
2023/08/11 05:32:05;;;;;;;5.87;3.30;;;;;;;18.37;60.63;100499.53;4481506;32;32762;-77
2023/08/11 05:34:33;;;;;;;6.65;3.20;;;;;;;18.28;61.29;100502.78;4457768;32;34579;-78
2023/08/11 05:37:00;;;;;;;6.85;3.28;;;;;;;18.34;61.05;100496.81;4478366;32;33738;-77
2023/08/11 05:39:28;;;;;;;7.20;3.00;;;;;;;18.57;60.46;100504.34;4476358;32;34063;-76
2023/08/11 05:41:56;;;;;;;6.03;3.35;;;;;;;18.66;60.32;100502.84;4479282;32;34134;-76
2023/08/11 05:44:24;;;;;;;5.90;3.27;;;;;;;18.79;59.96;100500.47;4477069;32;34281;-76
2023/08/11 05:46:52;;;;;;;6.53;2.90;;;;;;;18.85;59.19;100500.63;4480524;32;33715;-77
2023/08/11 05:49:19;;;;;;;5.70;3.00;;;;;;;19.13;58.73;100506.50;4475957;32;34581;-77
2023/08/11 05:51:47;;;;;;;6.33;3.10;;;;;;;19.14;58.60;100501.31;4476135;32;32253;-77
2023/08/11 05:54:17;;;;;;;7.43;3.45;;;;;;;19.14;58.93;100497.75;4474215;32;32751;-77
2023/08/11 05:56:45;;;;;;;5.90;3.00;;;;;;;19.29;58.54;100503.34;4477293;32;33631;-77
2023/08/11 05:59:12;;;;;;;4.87;3.10;;;;;;;19.44;58.02;100502.78;4474643;32;34555;-77
2023/08/11 06:01:40;;;;;;;5.85;3.00;;;;;;;19.20;59.09;100508.41;4475779;32;31872;-78
2023/08/11 06:04:08;;;;;;;7.28;3.12;;;;;;;19.14;59.54;100506.56;4475724;32;33916;-77
2023/08/11 06:06:36;;;;;;;5.53;3.00;;;;;;;19.62;58.05;100512.75;4461674;32;33049;-77
2023/08/11 06:09:04;;;;;;;5.40;2.53;;;;;;;19.44;58.55;100518.53;4473861;32;33351;-77
2023/08/11 06:11:34;;;;;;;5.30;2.78;;;;;;;19.63;58.47;100519.78;4472406;32;32854;-78
2023/08/11 06:14:03;;;;;;;4.68;2.45;;;;;;;19.75;57.80;100525.31;4474949;32;33568;-77
2023/08/11 06:16:30;;;;;;;5.05;2.80;;;;;;;20.30;56.10;100525.41;4458283;32;33477;-77
2023/08/11 06:18:58;;;;;;;4.45;2.72;;;;;;;20.39;55.41;100520.28;4479720;32;33393;-77
2023/08/11 06:21:25;;;;;;;5.55;3.08;;;;;;;20.35;55.38;100517.59;4481029;32;33939;-77
2023/08/11 06:23:53;;;;;;;5.10;2.70;;;;;;;20.15;55.41;100515.50;4481523;32;33385;-77
2023/08/11 06:26:21;;;;;;;7.20;3.00;;;;;;;20.13;55.78;100522.50;4479315;32;34581;-77
2023/08/11 06:28:50;;;;;;;7.60;3.10;;;;;;;20.14;56.48;100519.00;4481122;32;34160;-78
2023/08/11 06:31:19;;;;;;;6.37;2.97;;;;;;;20.46;56.40;100516.03;4481910;32;33525;-77
2023/08/11 06:33:47;;;;;;;5.87;3.10;;;;;;;20.48;55.60;100519.56;4481299;32;33786;-77
2023/08/11 06:36:15;;;;;;;5.75;2.78;;;;;;;20.23;56.21;100520.91;4463859;32;33788;-78
2023/08/11 06:38:42;;;;;;;4.87;3.00;;;;;;;20.21;56.43;100523.50;4483057;32;33798;-76
2023/08/11 06:41:10;;;;;;;5.30;3.03;;;;;;;20.51;56.08;100518.72;4479249;32;32966;-77
2023/08/11 06:43:39;;;;;;;5.03;2.90;;;;;;;20.32;57.09;100514.91;4477390;32;33872;-76
2023/08/11 06:46:07;;;;;;;6.40;2.92;;;;;;;20.57;56.78;100519.72;4464834;32;33280;-77
2023/08/11 06:48:35;;;;;;;7.18;3.22;;;;;;;20.54;56.64;100524.91;4479029;32;33946;-76
2023/08/11 06:51:02;;;;;;;6.05;2.90;;;;;;;20.62;56.56;100527.69;4479598;32;33063;-75
2023/08/11 06:53:30;;;;;;;4.72;2.60;;;;;;;20.93;55.71;100531.66;4480155;32;33694;-76
2023/08/11 06:55:58;;;;;;;6.75;2.95;;;;;;;20.85;56.44;100529.81;4477680;32;33347;-76
2023/08/11 06:58:25;;;;;;;6.85;2.70;;;;;;;20.79;56.64;100530.59;4462313;32;32180;-76
2023/08/11 07:00:54;;;;;;;5.25;2.80;;;;;;;21.21;55.93;100529.44;4482283;32;32906;-76
2023/08/11 07:03:22;;;;;;;5.53;2.97;;;;;;;21.27;55.93;100533.91;4479071;32;33681;-75
2023/08/11 07:05:53;;;;;;;7.47;2.83;;;;;;;21.27;56.07;100532.16;4467378;32;34718;-76
2023/08/11 07:08:20;;;;;;;6.47;2.80;;;;;;;21.69;54.68;100533.56;4482088;32;32718;-76
2023/08/11 07:10:48;;;;;;;5.62;2.70;;;;;;;21.69;55.08;100528.28;4481129;32;33375;-76
2023/08/11 07:13:16;;;;;;;6.83;2.73;;;;;;;21.79;54.80;100534.53;4482285;32;33896;-76
2023/08/11 07:15:43;;;;;;;5.22;2.42;;;;;;;21.95;54.88;100532.94;4475095;32;34992;-76
2023/08/11 07:18:11;;;;;;;4.65;2.60;;;;;;;22.06;54.03;100531.31;4480312;32;34546;-77
2023/08/11 07:20:42;;;;;;;5.43;2.50;;;;;;;22.16;53.57;100533.16;4481132;32;32123;-76
2023/08/11 07:23:10;;;;;;;6.80;2.40;;;;;;;22.25;53.75;100539.41;4474702;32;33315;-76
2023/08/11 07:25:38;;;;;;;4.10;2.30;;;;;;;22.34;53.72;100539.50;4479601;32;34479;-77
2023/08/11 07:28:06;;;;;;;4.32;2.30;;;;;;;22.87;52.31;100532.81;4480805;32;33871;-76
2023/08/11 07:30:33;;;;;;;5.07;2.40;;;;;;;23.08;51.73;100540.03;4474317;32;34697;-76
2023/08/11 07:33:02;;;;;;;5.50;2.55;;;;;;;23.27;51.39;100536.59;4459976;32;34629;-76
2023/08/11 07:35:30;;;;;;;5.03;2.83;;;;;;;23.44;50.68;100539.31;4477126;32;34358;-76
2023/08/11 07:37:58;;;;;;;5.68;2.67;;;;;;;23.60;50.30;100537.59;4483094;32;33418;-76
2023/08/11 07:40:25;;;;;;;5.05;2.72;;;;;;;24.06;49.36;100529.81;4474405;32;34126;-77
2023/08/11 07:42:53;;;;;;;5.22;2.50;;;;;;;24.22;48.34;100530.72;4473715;32;34077;-78
2023/08/11 07:45:20;;;;;;;5.55;2.65;;;;;;;24.53;48.32;100536.94;4463737;32;33422;-78
2023/08/11 07:47:49;;;;;;;4.43;2.40;;;;;;;24.61;48.05;100536.00;4474686;31;33589;-76
2023/08/11 07:50:16;;;;;;;6.10;2.90;;;;;;;24.84;47.46;100533.34;4464540;32;32977;-77
2023/08/11 07:52:44;;;;;;;7.22;2.70;;;;;;;24.91;47.48;100549.22;4471182;32;33530;-77
2023/08/11 07:55:12;;;;;;;5.40;2.75;;;;;;;25.15;46.30;100546.50;4478828;32;34722;-77
2023/08/11 07:57:39;;;;;;;6.93;2.75;;;;;;;25.24;47.36;100541.22;4475018;32;33722;-79
2023/08/11 08:00:13;;;;;;;4.50;2.50;;;;;;;25.86;44.70;100536.47;4475040;32;33790;-78
2023/08/11 08:02:44;;;;;;;6.25;2.70;;;;;;;25.89;44.54;100537.34;4479780;32;33390;-78
2023/08/11 08:05:12;;;;;;;9.18;3.03;;;;;;;26.00;44.85;100547.94;4472701;32;33570;-78
2023/08/11 08:07:40;;;;;;;11.07;3.45;;;;;;;25.90;44.54;100540.88;4481565;32;34431;-78
2023/08/11 08:10:08;;;;;;;5.00;2.58;;;;;;;26.46;43.41;100539.63;4470968;32;33907;-78
2023/08/11 08:12:37;;;;;;;6.93;2.60;;;;;;;26.31;43.48;100547.72;4470977;32;33733;-78
2023/08/11 08:15:06;;;;;;;5.32;2.40;;;;;;;26.43;43.09;100544.97;4474897;32;33739;-76
2023/08/11 08:17:34;;;;;;;5.30;2.60;;;;;;;26.86;42.52;100543.69;4465961;32;34040;-77
2023/08/11 08:20:04;;;;;;;6.50;2.55;;;;;;;26.77;42.26;100546.44;4470580;32;33854;-76
2023/08/11 08:22:35;;;;;;;4.57;2.53;;;;;;;27.01;41.56;100547.97;4480256;32;32834;-77
2023/08/11 08:25:07;;;;;;;4.28;2.20;;;;;;;27.24;40.93;100551.28;4471250;32;32776;-77
2023/08/11 08:27:35;;;;;;;5.12;2.50;;;;;;;27.30;40.40;100550.34;4473212;31;33552;-79
2023/08/11 08:30:06;;;;;;;7.62;2.80;;;;;;;27.59;40.22;100552.63;4473158;31;32395;-77
2023/08/11 08:32:33;;;;;;;6.07;2.40;;;;;;;27.48;40.41;100543.91;4475799;32;32769;-80
2023/08/11 08:35:01;;;;;;;5.87;2.53;;;;;;;27.74;40.36;100545.31;4475559;32;34730;-76
2023/08/11 08:37:31;;;;;;;4.90;2.35;;;;;;;27.98;40.18;100533.47;4475367;32;34531;-76
2023/08/11 08:39:58;;;;;;;5.50;2.25;;;;;;;28.34;39.57;100526.69;4478530;32;33623;-78
2023/08/11 08:42:26;;;;;;;4.70;2.20;;;;;;;28.61;38.33;100538.69;4477815;32;33909;-76
2023/08/11 08:44:54;;;;;;;5.28;2.50;;;;;;;28.69;38.15;100538.53;4471136;32;33078;-77
2023/08/11 08:47:22;;;;;;;5.32;2.60;;;;;;;28.91;38.04;100538.13;4472995;32;33690;-78
2023/08/11 08:49:50;;;;;;;4.00;2.20;;;;;;;28.89;38.44;100539.97;4461184;32;32954;-81
2023/08/11 08:52:18;;;;;;;4.57;2.40;;;;;;;29.08;37.77;100541.34;4471902;32;33705;-76
2023/08/11 08:54:46;;;;;;;4.95;2.25;;;;;;;29.29;37.07;100534.75;4460058;32;33710;-77
2023/08/11 08:57:15;;;;;;;5.65;2.37;;;;;;;29.64;36.32;100540.25;4466245;32;33444;-78
2023/08/11 08:59:44;;;;;;;3.87;1.97;;;;;;;29.90;35.98;100543.25;4480257;32;32523;-77
2023/08/11 09:02:12;;;;;;;4.43;2.17;;;;;;;30.16;35.29;100541.72;4464219;32;33261;-78
2023/08/11 09:04:40;;;;;;;4.70;2.17;;;;;;;29.85;35.22;100533.56;4457307;32;33617;-79
2023/08/11 09:07:09;;;;;;;4.50;2.30;;;;;;;30.05;35.28;100533.09;4463158;31;33548;-76
2023/08/11 09:09:37;;;;;;;5.37;2.30;;;;;;;30.26;34.81;100535.22;4465188;32;32684;-77
2023/08/11 09:12:04;;;;;;;4.12;2.10;;;;;;;30.23;35.23;100540.69;4477109;32;33539;-77
2023/08/11 09:14:32;;;;;;;5.28;2.30;;;;;;;30.40;34.07;100534.91;4483880;32;33652;-77
2023/08/11 09:17:00;;;;;;;4.65;2.22;;;;;;;30.30;34.79;100531.56;4482520;32;33799;-76
2023/08/11 09:19:28;;;;;;;5.28;2.25;;;;;;;30.25;34.33;100530.81;4475720;32;32754;-78
2023/08/11 09:21:56;;;;;;;3.72;2.30;;;;;;;29.78;35.00;100535.50;4484018;32;34480;-78
2023/08/11 09:24:23;;;;;;;4.23;2.10;;;;;;;30.14;34.46;100540.91;4482076;32;32504;-77
2023/08/11 09:26:51;;;;;;;4.55;2.20;;;;;;;30.08;34.86;100530.34;4463720;32;32196;-78
2023/08/11 09:29:19;;;;;;;6.28;2.08;;;;;;;30.24;34.96;100531.72;4480753;32;33356;-79
2023/08/11 09:31:49;;;;;;;4.15;2.20;;;;;;;30.33;34.21;100523.53;4476661;32;33777;-78
2023/08/11 09:34:19;;;;;;;3.78;2.20;;;;;;;30.37;34.41;100521.66;4477729;32;33180;-78
2023/08/11 09:36:48;;;;;;;5.15;2.10;;;;;;;30.35;33.52;100529.69;4477150;32;33692;-78
2023/08/11 09:39:16;;;;;;;3.55;2.08;;;;;;;30.53;34.65;100532.81;4460247;32;33493;-78
2023/08/11 09:41:47;;;;;;;3.97;1.90;;;;;;;30.45;33.71;100529.47;4473969;32;33386;-79
2023/08/11 09:44:16;;;;;;;4.72;1.90;;;;;;;30.01;34.32;100534.09;4475841;32;32933;-78
2023/08/11 09:46:46;;;;;;;4.97;2.08;;;;;;;30.36;34.82;100523.41;4481463;32;33576;-80
2023/08/11 09:49:14;;;;;;;3.25;1.80;;;;;;;30.46;34.01;100523.19;4453407;32;33210;-78
2023/08/11 09:51:42;;;;;;;4.15;1.80;;;;;;;30.75;33.20;100525.09;4463145;32;33896;-78
2023/08/11 09:54:10;;;;;;;3.40;1.90;;;;;;;30.54;32.92;100515.88;4476663;32;33722;-77
2023/08/11 09:56:40;;;;;;;2.85;1.92;;;;;;;30.43;33.84;100523.28;4479920;32;33424;-77
2023/08/11 09:59:18;;;;;;;3.10;1.90;;;;;;;30.34;33.64;100517.25;4471464;32;32750;-78
2023/08/11 10:01:47;;;;;;;3.75;1.80;;;;;;;30.11;33.43;100523.12;4469812;31;33533;-77
2023/08/11 10:04:20;;;;;;;4.03;2.00;;;;;;;29.45;34.72;100519.28;4465842;32;34602;-78
2023/08/11 10:06:52;;;;;;;4.30;1.95;;;;;;;28.89;35.63;100521.28;4481632;32;34341;-78
2023/08/11 10:09:22;;;;;;;3.97;1.80;;;;;;;29.38;35.65;100523.88;4483110;32;32886;-79
2023/08/11 10:11:51;;;;;;;3.55;1.73;;;;;;;29.71;35.03;100515.13;4464603;32;33293;-77
2023/08/11 10:14:20;;;;;;;3.62;1.70;;;;;;;29.96;34.11;100518.16;4469371;32;33866;-78
2023/08/11 10:16:49;;;;;;;4.35;1.90;;;;;;;29.71;34.12;100520.47;4477697;32;34791;-77
2023/08/11 10:19:17;;;;;;;6.55;2.10;;;;;;;29.16;35.43;100512.75;4456951;32;32988;-78
2023/08/11 10:21:45;;;;;;;4.03;2.03;;;;;;;29.04;35.62;100513.00;4460937;32;33994;-78
2023/08/11 10:24:13;;;;;;;4.03;2.00;;;;;;;29.08;35.65;100517.34;4481241;32;35154;-79
2023/08/11 10:26:40;;;;;;;4.20;1.80;;;;;;;28.79;35.53;100513.47;4481679;32;33580;-76
2023/08/11 10:29:10;;;;;;;5.18;1.90;;;;;;;28.82;35.23;100508.09;4478917;32;33891;-78
2023/08/11 10:31:54;;;;;;;3.78;1.90;;;;;;;28.08;36.52;100523.56;4454936;32;34394;-80
2023/08/11 10:34:23;;;;;;;4.45;1.87;;;;;;;27.91;37.88;100511.41;4477836;32;33886;-77
2023/08/11 10:36:57;;;;;;;4.70;2.00;;;;;;;28.92;35.34;100505.25;4468188;32;33639;-79
2023/08/11 10:39:25;;;;;;;3.80;2.00;;;;;;;29.25;34.97;100510.84;4463959;32;32686;-77
2023/08/11 10:41:56;;;;;;;4.43;2.00;;;;;;;29.48;34.69;100513.03;4479814;32;34139;-79
2023/08/11 10:44:28;;;;;;;4.17;2.10;;;;;;;29.60;34.02;100505.59;4461198;31;33314;-79
2023/08/11 10:47:02;;;;;;;5.57;2.28;;;;;;;29.65;34.91;100496.59;4475457;31;33601;-78
2023/08/11 10:49:33;;;;;;;4.30;1.98;;;;;;;30.27;33.25;100499.59;4468524;32;33486;-79
2023/08/11 10:52:02;;;;;;;4.78;2.00;;;;;;;30.11;33.25;100498.22;4463635;32;32519;-79
2023/08/11 10:54:29;;;;;;;3.83;1.92;;;;;;;30.07;34.08;100502.75;4478255;32;33532;-78
2023/08/11 10:56:59;;;;;;;4.05;2.10;;;;;;;30.15;33.57;100500.78;4480617;32;34147;-79
2023/08/11 10:59:30;;;;;;;3.75;1.80;;;;;;;30.25;33.54;100495.19;4477806;32;33797;-78
2023/08/11 11:02:01;;;;;;;3.80;1.80;;;;;;;30.42;33.43;100497.47;4449505;32;33641;-77
2023/08/11 11:04:31;;;;;;;4.87;2.00;;;;;;;30.65;32.32;100495.03;4475398;31;33003;-77
2023/08/11 11:07:00;;;;;;;4.75;1.80;;;;;;;30.61;32.66;100495.19;4476133;32;33595;-78
2023/08/11 11:09:28;;;;;;;3.30;1.80;;;;;;;30.60;33.09;100497.00;4465182;32;33888;-77
2023/08/11 11:11:56;;;;;;;4.03;1.80;;;;;;;30.87;32.66;100495.34;4482206;32;33389;-77
2023/08/11 11:14:24;;;;;;;3.80;1.60;;;;;;;30.96;31.46;100494.22;4483396;32;33261;-77
2023/08/11 11:17:00;;;;;;;3.58;1.80;;;;;;;31.23;30.83;100497.03;4472092;32;33374;-77
2023/08/11 11:19:29;;;;;;;3.67;1.87;;;;;;;31.26;31.18;100499.62;4466269;32;32545;-77
2023/08/11 11:21:58;;;;;;;3.30;1.70;;;;;;;30.85;31.73;100496.28;4465331;31;34335;-78
2023/08/11 11:24:26;;;;;;;3.08;1.80;;;;;;;30.95;31.07;100493.34;4474386;32;33554;-78
2023/08/11 11:26:53;;;;;;;3.97;1.80;;;;;;;30.73;30.99;100493.06;4484412;32;34284;-77
2023/08/11 11:29:23;;;;;;;2.95;1.80;;;;;;;30.89;30.55;100489.97;4466569;32;32832;-77
2023/08/11 11:31:51;;;;;;;3.17;1.90;;;;;;;31.13;30.22;100491.94;4482047;32;34268;-78